sensor_id;sensor_type;location;lat;lon;timestamp;P1;durP1;ratioP1;P2;durP2;ratioP2
22754;SDS011;11544;42.020;23.094;2024-02-28T00:00:26;5.25;;;3.63;;
22754;SDS011;11544;42.020;23.094;2024-02-28T00:02:53;6.05;;;3.47;;
22754;SDS011;11544;42.020;23.094;2024-02-28T00:05:20;5.25;;;3.17;;
22754;SDS011;11544;42.020;23.094;2024-02-28T00:07:46;11.45;;;2.60;;
22754;SDS011;11544;42.020;23.094;2024-02-28T00:10:13;5.07;;;3.05;;
22754;SDS011;11544;42.020;23.094;2024-02-28T00:12:40;6.72;;;3.08;;
22754;SDS011;11544;42.020;23.094;2024-02-28T00:15:07;4.15;;;2.58;;
22754;SDS011;11544;42.020;23.094;2024-02-28T00:17:40;4.55;;;2.75;;
22754;SDS011;11544;42.020;23.094;2024-02-28T00:20:08;6.18;;;3.15;;
22754;SDS011;11544;42.020;23.094;2024-02-28T00:22:36;6.38;;;3.10;;
22754;SDS011;11544;42.020;23.094;2024-02-28T00:25:03;6.65;;;3.45;;
22754;SDS011;11544;42.020;23.094;2024-02-28T00:27:33;6.15;;;2.88;;
22754;SDS011;11544;42.020;23.094;2024-02-28T00:30:01;8.77;;;3.80;;
22754;SDS011;11544;42.020;23.094;2024-02-28T00:32:28;6.82;;;3.50;;
22754;SDS011;11544;42.020;23.094;2024-02-28T00:34:55;4.72;;;2.97;;
22754;SDS011;11544;42.020;23.094;2024-02-28T00:37:22;6.20;;;3.55;;
22754;SDS011;11544;42.020;23.094;2024-02-28T00:39:49;8.35;;;3.78;;
22754;SDS011;11544;42.020;23.094;2024-02-28T00:42:16;10.60;;;3.90;;
22754;SDS011;11544;42.020;23.094;2024-02-28T00:44:43;8.90;;;3.80;;
22754;SDS011;11544;42.020;23.094;2024-02-28T00:47:10;6.10;;;4.10;;
22754;SDS011;11544;42.020;23.094;2024-02-28T00:49:37;5.88;;;3.20;;
22754;SDS011;11544;42.020;23.094;2024-02-28T00:52:04;8.32;;;3.33;;
22754;SDS011;11544;42.020;23.094;2024-02-28T00:54:31;5.45;;;3.40;;
22754;SDS011;11544;42.020;23.094;2024-02-28T00:56:58;8.07;;;3.50;;
22754;SDS011;11544;42.020;23.094;2024-02-28T00:59:26;5.00;;;2.80;;
22754;SDS011;11544;42.020;23.094;2024-02-28T01:01:53;6.10;;;3.47;;
22754;SDS011;11544;42.020;23.094;2024-02-28T01:04:19;6.10;;;3.40;;
22754;SDS011;11544;42.020;23.094;2024-02-28T01:06:46;7.05;;;3.60;;
22754;SDS011;11544;42.020;23.094;2024-02-28T01:09:13;13.48;;;3.95;;
22754;SDS011;11544;42.020;23.094;2024-02-28T01:11:40;6.75;;;3.33;;
22754;SDS011;11544;42.020;23.094;2024-02-28T01:14:07;7.13;;;3.80;;
22754;SDS011;11544;42.020;23.094;2024-02-28T01:16:34;7.25;;;3.97;;
22754;SDS011;11544;42.020;23.094;2024-02-28T01:19:01;6.10;;;3.28;;
22754;SDS011;11544;42.020;23.094;2024-02-28T01:21:29;5.93;;;3.58;;
22754;SDS011;11544;42.020;23.094;2024-02-28T01:23:56;6.85;;;3.60;;
22754;SDS011;11544;42.020;23.094;2024-02-28T01:26:23;11.35;;;5.20;;
22754;SDS011;11544;42.020;23.094;2024-02-28T01:28:50;10.20;;;5.72;;
22754;SDS011;11544;42.020;23.094;2024-02-28T01:31:18;9.07;;;5.80;;
22754;SDS011;11544;42.020;23.094;2024-02-28T01:33:44;11.48;;;6.85;;
22754;SDS011;11544;42.020;23.094;2024-02-28T01:36:11;17.40;;;8.25;;
22754;SDS011;11544;42.020;23.094;2024-02-28T01:38:38;15.32;;;8.20;;
22754;SDS011;11544;42.020;23.094;2024-02-28T01:41:05;14.68;;;8.18;;
22754;SDS011;11544;42.020;23.094;2024-02-28T01:43:32;11.35;;;7.53;;
22754;SDS011;11544;42.020;23.094;2024-02-28T01:46:00;15.90;;;7.53;;
22754;SDS011;11544;42.020;23.094;2024-02-28T01:48:29;11.10;;;6.75;;
22754;SDS011;11544;42.020;23.094;2024-02-28T01:50:57;8.68;;;5.13;;
22754;SDS011;11544;42.020;23.094;2024-02-28T01:53:24;8.90;;;4.97;;
22754;SDS011;11544;42.020;23.094;2024-02-28T01:55:52;8.25;;;4.10;;
22754;SDS011;11544;42.020;23.094;2024-02-28T01:58:20;5.95;;;4.45;;
22754;SDS011;11544;42.020;23.094;2024-02-28T02:00:48;10.13;;;5.10;;
22754;SDS011;11544;42.020;23.094;2024-02-28T02:03:15;11.63;;;5.45;;
22754;SDS011;11544;42.020;23.094;2024-02-28T02:05:43;7.10;;;4.32;;
22754;SDS011;11544;42.020;23.094;2024-02-28T02:08:11;13.23;;;5.57;;
22754;SDS011;11544;42.020;23.094;2024-02-28T02:10:38;12.38;;;5.68;;
22754;SDS011;11544;42.020;23.094;2024-02-28T02:13:05;14.95;;;5.32;;
22754;SDS011;11544;42.020;23.094;2024-02-28T02:15:32;13.07;;;5.90;;
22754;SDS011;11544;42.020;23.094;2024-02-28T02:18:00;9.63;;;5.38;;
22754;SDS011;11544;42.020;23.094;2024-02-28T02:20:27;9.68;;;5.60;;
22754;SDS011;11544;42.020;23.094;2024-02-28T02:22:58;9.25;;;5.75;;
22754;SDS011;11544;42.020;23.094;2024-02-28T02:25:26;8.18;;;5.82;;
22754;SDS011;11544;42.020;23.094;2024-02-28T02:27:53;9.73;;;6.13;;
22754;SDS011;11544;42.020;23.094;2024-02-28T02:30:20;11.48;;;6.35;;
22754;SDS011;11544;42.020;23.094;2024-02-28T02:32:47;9.48;;;6.43;;
22754;SDS011;11544;42.020;23.094;2024-02-28T02:35:14;11.40;;;6.03;;
22754;SDS011;11544;42.020;23.094;2024-02-28T02:37:44;17.75;;;7.18;;
22754;SDS011;11544;42.020;23.094;2024-02-28T02:40:15;10.30;;;6.60;;
22754;SDS011;11544;42.020;23.094;2024-02-28T02:42:42;12.40;;;7.20;;
22754;SDS011;11544;42.020;23.094;2024-02-28T02:45:09;10.30;;;6.70;;
22754;SDS011;11544;42.020;23.094;2024-02-28T02:47:36;12.30;;;7.13;;
22754;SDS011;11544;42.020;23.094;2024-02-28T02:50:03;15.00;;;6.60;;
22754;SDS011;11544;42.020;23.094;2024-02-28T02:52:30;12.20;;;6.95;;
22754;SDS011;11544;42.020;23.094;2024-02-28T02:54:57;13.93;;;6.68;;
22754;SDS011;11544;42.020;23.094;2024-02-28T02:57:24;11.68;;;7.13;;
22754;SDS011;11544;42.020;23.094;2024-02-28T02:59:51;11.82;;;7.10;;
22754;SDS011;11544;42.020;23.094;2024-02-28T03:02:18;13.43;;;8.02;;
22754;SDS011;11544;42.020;23.094;2024-02-28T03:04:44;12.68;;;8.07;;
22754;SDS011;11544;42.020;23.094;2024-02-28T03:07:11;13.55;;;8.27;;
22754;SDS011;11544;42.020;23.094;2024-02-28T03:09:38;14.70;;;7.80;;
22754;SDS011;11544;42.020;23.094;2024-02-28T03:12:05;14.20;;;7.82;;
22754;SDS011;11544;42.020;23.094;2024-02-28T03:14:32;12.98;;;7.13;;
22754;SDS011;11544;42.020;23.094;2024-02-28T03:16:59;12.82;;;7.15;;
22754;SDS011;11544;42.020;23.094;2024-02-28T03:19:26;10.90;;;7.07;;
22754;SDS011;11544;42.020;23.094;2024-02-28T03:21:56;12.30;;;6.72;;
22754;SDS011;11544;42.020;23.094;2024-02-28T03:24:23;16.50;;;7.75;;
22754;SDS011;11544;42.020;23.094;2024-02-28T03:26:50;11.60;;;6.95;;
22754;SDS011;11544;42.020;23.094;2024-02-28T03:29:17;15.15;;;7.03;;
22754;SDS011;11544;42.020;23.094;2024-02-28T03:31:44;12.75;;;6.65;;
22754;SDS011;11544;42.020;23.094;2024-02-28T03:34:10;11.00;;;6.95;;
22754;SDS011;11544;42.020;23.094;2024-02-28T03:36:37;12.68;;;7.50;;
22754;SDS011;11544;42.020;23.094;2024-02-28T03:39:05;13.55;;;7.57;;
22754;SDS011;11544;42.020;23.094;2024-02-28T03:41:32;13.73;;;7.20;;
22754;SDS011;11544;42.020;23.094;2024-02-28T03:43:59;14.60;;;8.38;;
22754;SDS011;11544;42.020;23.094;2024-02-28T03:46:26;15.07;;;8.80;;
22754;SDS011;11544;42.020;23.094;2024-02-28T03:48:53;13.75;;;8.65;;
22754;SDS011;11544;42.020;23.094;2024-02-28T03:51:19;15.07;;;8.15;;
22754;SDS011;11544;42.020;23.094;2024-02-28T03:53:47;15.90;;;8.23;;
22754;SDS011;11544;42.020;23.094;2024-02-28T03:56:21;16.55;;;8.55;;
22754;SDS011;11544;42.020;23.094;2024-02-28T03:58:51;13.95;;;8.48;;
22754;SDS011;11544;42.020;23.094;2024-02-28T04:01:19;12.30;;;8.48;;
22754;SDS011;11544;42.020;23.094;2024-02-28T04:03:46;16.10;;;9.38;;
22754;SDS011;11544;42.020;23.094;2024-02-28T04:06:13;15.95;;;9.07;;
22754;SDS011;11544;42.020;23.094;2024-02-28T04:08:40;17.08;;;9.45;;
22754;SDS011;11544;42.020;23.094;2024-02-28T04:11:07;19.83;;;9.02;;
22754;SDS011;11544;42.020;23.094;2024-02-28T04:13:34;13.35;;;8.23;;
22754;SDS011;11544;42.020;23.094;2024-02-28T04:16:01;14.43;;;7.97;;
22754;SDS011;11544;42.020;23.094;2024-02-28T04:18:29;20.98;;;9.38;;
22754;SDS011;11544;42.020;23.094;2024-02-28T04:20:56;16.13;;;9.18;;
22754;SDS011;11544;42.020;23.094;2024-02-28T04:23:23;15.70;;;9.57;;
22754;SDS011;11544;42.020;23.094;2024-02-28T04:25:50;20.65;;;10.35;;
22754;SDS011;11544;42.020;23.094;2024-02-28T04:28:17;17.13;;;9.82;;
22754;SDS011;11544;42.020;23.094;2024-02-28T04:30:44;17.08;;;9.57;;
22754;SDS011;11544;42.020;23.094;2024-02-28T04:33:11;18.55;;;9.45;;
22754;SDS011;11544;42.020;23.094;2024-02-28T04:35:37;14.55;;;9.00;;
22754;SDS011;11544;42.020;23.094;2024-02-28T04:38:04;15.63;;;9.65;;
22754;SDS011;11544;42.020;23.094;2024-02-28T04:40:31;14.65;;;9.32;;
22754;SDS011;11544;42.020;23.094;2024-02-28T04:42:58;13.07;;;8.48;;
22754;SDS011;11544;42.020;23.094;2024-02-28T04:45:25;14.45;;;9.07;;
22754;SDS011;11544;42.020;23.094;2024-02-28T04:47:52;16.15;;;9.02;;
22754;SDS011;11544;42.020;23.094;2024-02-28T04:50:20;14.95;;;9.13;;
22754;SDS011;11544;42.020;23.094;2024-02-28T04:52:47;15.27;;;9.23;;
22754;SDS011;11544;42.020;23.094;2024-02-28T04:55:14;19.50;;;10.65;;
22754;SDS011;11544;42.020;23.094;2024-02-28T04:57:41;24.95;;;11.60;;
22754;SDS011;11544;42.020;23.094;2024-02-28T05:00:09;29.27;;;15.15;;
22754;SDS011;11544;42.020;23.094;2024-02-28T05:02:36;16.98;;;10.43;;
22754;SDS011;11544;42.020;23.094;2024-02-28T05:05:03;22.20;;;10.65;;
22754;SDS011;11544;42.020;23.094;2024-02-28T05:07:30;17.60;;;9.77;;
22754;SDS011;11544;42.020;23.094;2024-02-28T05:09:57;16.63;;;9.77;;
22754;SDS011;11544;42.020;23.094;2024-02-28T05:12:24;23.38;;;9.00;;
22754;SDS011;11544;42.020;23.094;2024-02-28T05:14:51;17.65;;;9.68;;
22754;SDS011;11544;42.020;23.094;2024-02-28T05:17:20;15.38;;;9.18;;
22754;SDS011;11544;42.020;23.094;2024-02-28T05:19:47;17.55;;;8.93;;
22754;SDS011;11544;42.020;23.094;2024-02-28T05:22:14;16.23;;;9.65;;
22754;SDS011;11544;42.020;23.094;2024-02-28T05:24:41;18.10;;;9.48;;
22754;SDS011;11544;42.020;23.094;2024-02-28T05:27:10;14.90;;;9.55;;
22754;SDS011;11544;42.020;23.094;2024-02-28T05:29:36;18.13;;;10.40;;
22754;SDS011;11544;42.020;23.094;2024-02-28T05:32:03;17.95;;;10.05;;
22754;SDS011;11544;42.020;23.094;2024-02-28T05:34:30;23.55;;;12.35;;
22754;SDS011;11544;42.020;23.094;2024-02-28T05:36:57;18.08;;;11.50;;
22754;SDS011;11544;42.020;23.094;2024-02-28T05:39:26;19.83;;;12.00;;
22754;SDS011;11544;42.020;23.094;2024-02-28T05:41:57;22.08;;;12.52;;
22754;SDS011;11544;42.020;23.094;2024-02-28T05:44:24;22.27;;;11.82;;
22754;SDS011;11544;42.020;23.094;2024-02-28T05:46:51;26.33;;;12.20;;
22754;SDS011;11544;42.020;23.094;2024-02-28T05:49:18;20.90;;;11.88;;
22754;SDS011;11544;42.020;23.094;2024-02-28T05:51:45;26.83;;;13.18;;
22754;SDS011;11544;42.020;23.094;2024-02-28T05:54:13;22.42;;;12.55;;
22754;SDS011;11544;42.020;23.094;2024-02-28T05:56:40;21.27;;;11.77;;
22754;SDS011;11544;42.020;23.094;2024-02-28T05:59:07;17.30;;;10.45;;
22754;SDS011;11544;42.020;23.094;2024-02-28T06:01:34;25.05;;;11.65;;
22754;SDS011;11544;42.020;23.094;2024-02-28T06:04:02;24.33;;;12.50;;
22754;SDS011;11544;42.020;23.094;2024-02-28T06:06:29;25.67;;;11.80;;
22754;SDS011;11544;42.020;23.094;2024-02-28T06:08:56;24.40;;;13.02;;
22754;SDS011;11544;42.020;23.094;2024-02-28T06:11:23;26.08;;;13.38;;
22754;SDS011;11544;42.020;23.094;2024-02-28T06:13:51;24.92;;;14.15;;
22754;SDS011;11544;42.020;23.094;2024-02-28T06:16:18;30.15;;;13.82;;
22754;SDS011;11544;42.020;23.094;2024-02-28T06:18:45;24.25;;;14.98;;
22754;SDS011;11544;42.020;23.094;2024-02-28T06:21:13;26.27;;;15.80;;
22754;SDS011;11544;42.020;23.094;2024-02-28T06:23:41;29.10;;;15.50;;
22754;SDS011;11544;42.020;23.094;2024-02-28T06:26:08;30.75;;;17.13;;
22754;SDS011;11544;42.020;23.094;2024-02-28T06:28:41;26.50;;;15.38;;
22754;SDS011;11544;42.020;23.094;2024-02-28T06:31:15;32.78;;;16.67;;
22754;SDS011;11544;42.020;23.094;2024-02-28T06:33:43;23.35;;;15.63;;
22754;SDS011;11544;42.020;23.094;2024-02-28T06:36:10;29.92;;;15.77;;
22754;SDS011;11544;42.020;23.094;2024-02-28T06:38:37;28.88;;;15.65;;
22754;SDS011;11544;42.020;23.094;2024-02-28T06:41:05;27.15;;;15.75;;
22754;SDS011;11544;42.020;23.094;2024-02-28T06:43:35;29.70;;;15.68;;
22754;SDS011;11544;42.020;23.094;2024-02-28T06:46:03;29.73;;;15.70;;
22754;SDS011;11544;42.020;23.094;2024-02-28T06:48:31;29.85;;;15.52;;
22754;SDS011;11544;42.020;23.094;2024-02-28T06:50:58;29.45;;;15.63;;
22754;SDS011;11544;42.020;23.094;2024-02-28T06:53:25;28.42;;;15.32;;
22754;SDS011;11544;42.020;23.094;2024-02-28T06:55:52;29.27;;;15.60;;
22754;SDS011;11544;42.020;23.094;2024-02-28T06:58:21;32.63;;;15.52;;
22754;SDS011;11544;42.020;23.094;2024-02-28T07:00:50;23.13;;;14.52;;
22754;SDS011;11544;42.020;23.094;2024-02-28T07:03:21;27.17;;;14.05;;
22754;SDS011;11544;42.020;23.094;2024-02-28T07:05:49;27.55;;;15.30;;
22754;SDS011;11544;42.020;23.094;2024-02-28T07:08:16;23.63;;;14.45;;
22754;SDS011;11544;42.020;23.094;2024-02-28T07:10:43;32.22;;;16.17;;
22754;SDS011;11544;42.020;23.094;2024-02-28T07:13:14;27.83;;;15.93;;
22754;SDS011;11544;42.020;23.094;2024-02-28T07:15:42;29.50;;;14.20;;
22754;SDS011;11544;42.020;23.094;2024-02-28T07:18:08;30.52;;;16.15;;
22754;SDS011;11544;42.020;23.094;2024-02-28T07:20:36;30.83;;;15.80;;
22754;SDS011;11544;42.020;23.094;2024-02-28T07:23:03;32.88;;;15.68;;
22754;SDS011;11544;42.020;23.094;2024-02-28T07:25:32;25.52;;;14.45;;
22754;SDS011;11544;42.020;23.094;2024-02-28T07:27:59;29.08;;;15.77;;
22754;SDS011;11544;42.020;23.094;2024-02-28T07:30:29;25.42;;;14.95;;
22754;SDS011;11544;42.020;23.094;2024-02-28T07:33:00;26.85;;;14.60;;
22754;SDS011;11544;42.020;23.094;2024-02-28T07:35:48;31.33;;;15.85;;
22754;SDS011;11544;42.020;23.094;2024-02-28T07:38:18;30.27;;;14.80;;
22754;SDS011;11544;42.020;23.094;2024-02-28T07:40:57;41.22;;;19.70;;
22754;SDS011;11544;42.020;23.094;2024-02-28T07:43:27;34.17;;;15.57;;
22754;SDS011;11544;42.020;23.094;2024-02-28T07:46:09;29.77;;;15.88;;
22754;SDS011;11544;42.020;23.094;2024-02-28T07:48:38;32.13;;;15.52;;
22754;SDS011;11544;42.020;23.094;2024-02-28T07:51:06;36.05;;;17.48;;
22754;SDS011;11544;42.020;23.094;2024-02-28T07:53:34;32.95;;;17.80;;
22754;SDS011;11544;42.020;23.094;2024-02-28T07:56:01;32.70;;;19.40;;
22754;SDS011;11544;42.020;23.094;2024-02-28T07:58:29;37.42;;;22.70;;
22754;SDS011;11544;42.020;23.094;2024-02-28T08:00:56;38.47;;;20.08;;
22754;SDS011;11544;42.020;23.094;2024-02-28T08:03:23;41.30;;;20.75;;
22754;SDS011;11544;42.020;23.094;2024-02-28T08:05:50;47.13;;;27.35;;
22754;SDS011;11544;42.020;23.094;2024-02-28T08:08:17;36.10;;;20.55;;
22754;SDS011;11544;42.020;23.094;2024-02-28T08:10:44;38.28;;;17.98;;
22754;SDS011;11544;42.020;23.094;2024-02-28T08:13:13;30.45;;;17.05;;
22754;SDS011;11544;42.020;23.094;2024-02-28T08:15:40;33.50;;;17.92;;
22754;SDS011;11544;42.020;23.094;2024-02-28T08:18:08;32.67;;;18.63;;
22754;SDS011;11544;42.020;23.094;2024-02-28T08:20:38;33.20;;;17.95;;
22754;SDS011;11544;42.020;23.094;2024-02-28T08:23:05;31.20;;;16.13;;
22754;SDS011;11544;42.020;23.094;2024-02-28T08:25:32;28.23;;;16.38;;
22754;SDS011;11544;42.020;23.094;2024-02-28T08:27:59;34.53;;;17.33;;
22754;SDS011;11544;42.020;23.094;2024-02-28T08:30:26;24.67;;;16.23;;
22754;SDS011;11544;42.020;23.094;2024-02-28T08:32:54;27.15;;;14.35;;
22754;SDS011;11544;42.020;23.094;2024-02-28T08:35:21;25.30;;;13.18;;
22754;SDS011;11544;42.020;23.094;2024-02-28T08:37:49;24.63;;;14.57;;
22754;SDS011;11544;42.020;23.094;2024-02-28T08:40:17;17.90;;;12.57;;
22754;SDS011;11544;42.020;23.094;2024-02-28T08:42:45;25.83;;;12.93;;
22754;SDS011;11544;42.020;23.094;2024-02-28T08:45:13;24.38;;;11.02;;
22754;SDS011;11544;42.020;23.094;2024-02-28T08:47:40;18.75;;;11.88;;
22754;SDS011;11544;42.020;23.094;2024-02-28T08:50:08;17.35;;;10.98;;
22754;SDS011;11544;42.020;23.094;2024-02-28T08:52:35;20.73;;;11.60;;
22754;SDS011;11544;42.020;23.094;2024-02-28T08:55:02;19.13;;;11.48;;
22754;SDS011;11544;42.020;23.094;2024-02-28T08:57:29;14.93;;;9.25;;
22754;SDS011;11544;42.020;23.094;2024-02-28T08:59:56;15.35;;;7.45;;
22754;SDS011;11544;42.020;23.094;2024-02-28T09:02:23;15.82;;;7.45;;
22754;SDS011;11544;42.020;23.094;2024-02-28T09:04:50;20.50;;;9.82;;
22754;SDS011;11544;42.020;23.094;2024-02-28T09:07:19;18.73;;;10.98;;
22754;SDS011;11544;42.020;23.094;2024-02-28T09:09:46;23.08;;;11.13;;
22754;SDS011;11544;42.020;23.094;2024-02-28T09:12:13;19.98;;;10.18;;
22754;SDS011;11544;42.020;23.094;2024-02-28T09:14:40;18.75;;;11.25;;
22754;SDS011;11544;42.020;23.094;2024-02-28T09:17:07;19.45;;;11.00;;
22754;SDS011;11544;42.020;23.094;2024-02-28T09:19:34;18.05;;;11.02;;
22754;SDS011;11544;42.020;23.094;2024-02-28T09:22:01;20.50;;;10.95;;
22754;SDS011;11544;42.020;23.094;2024-02-28T09:24:28;23.60;;;11.00;;
22754;SDS011;11544;42.020;23.094;2024-02-28T09:26:55;18.77;;;11.65;;
22754;SDS011;11544;42.020;23.094;2024-02-28T09:29:21;19.95;;;11.32;;
22754;SDS011;11544;42.020;23.094;2024-02-28T09:31:48;18.70;;;11.27;;
22754;SDS011;11544;42.020;23.094;2024-02-28T09:34:15;22.05;;;10.90;;
22754;SDS011;11544;42.020;23.094;2024-02-28T09:36:42;21.95;;;11.05;;
22754;SDS011;11544;42.020;23.094;2024-02-28T09:39:16;27.80;;;11.60;;
22754;SDS011;11544;42.020;23.094;2024-02-28T09:41:43;27.35;;;11.88;;
22754;SDS011;11544;42.020;23.094;2024-02-28T09:44:14;24.10;;;10.82;;
22754;SDS011;11544;42.020;23.094;2024-02-28T09:46:43;33.85;;;11.68;;
22754;SDS011;11544;42.020;23.094;2024-02-28T09:49:16;22.73;;;10.43;;
22754;SDS011;11544;42.020;23.094;2024-02-28T09:51:44;21.10;;;10.10;;
22754;SDS011;11544;42.020;23.094;2024-02-28T09:54:16;22.50;;;10.32;;
22754;SDS011;11544;42.020;23.094;2024-02-28T09:56:44;25.75;;;11.63;;
22754;SDS011;11544;42.020;23.094;2024-02-28T09:59:11;19.10;;;10.73;;
22754;SDS011;11544;42.020;23.094;2024-02-28T10:01:42;20.33;;;10.05;;
22754;SDS011;11544;42.020;23.094;2024-02-28T10:04:13;17.95;;;9.95;;
22754;SDS011;11544;42.020;23.094;2024-02-28T10:06:40;26.25;;;10.40;;
22754;SDS011;11544;42.020;23.094;2024-02-28T10:09:07;23.58;;;9.95;;
22754;SDS011;11544;42.020;23.094;2024-02-28T10:11:34;13.95;;;8.00;;
22754;SDS011;11544;42.020;23.094;2024-02-28T10:14:03;17.23;;;9.13;;
22754;SDS011;11544;42.020;23.094;2024-02-28T10:16:30;20.75;;;8.55;;
22754;SDS011;11544;42.020;23.094;2024-02-28T10:18:57;12.52;;;6.63;;
22754;SDS011;11544;42.020;23.094;2024-02-28T10:21:24;13.45;;;6.25;;
22754;SDS011;11544;42.020;23.094;2024-02-28T10:23:52;9.02;;;6.45;;
22754;SDS011;11544;42.020;23.094;2024-02-28T10:26:19;13.48;;;6.80;;
22754;SDS011;11544;42.020;23.094;2024-02-28T10:28:47;12.85;;;6.35;;
22754;SDS011;11544;42.020;23.094;2024-02-28T10:31:14;11.10;;;5.45;;
22754;SDS011;11544;42.020;23.094;2024-02-28T10:33:41;15.40;;;7.55;;
22754;SDS011;11544;42.020;23.094;2024-02-28T10:36:09;9.95;;;5.60;;
22754;SDS011;11544;42.020;23.094;2024-02-28T10:38:38;11.43;;;5.38;;
22754;SDS011;11544;42.020;23.094;2024-02-28T10:41:05;10.38;;;5.35;;
22754;SDS011;11544;42.020;23.094;2024-02-28T10:43:36;9.93;;;5.57;;
22754;SDS011;11544;42.020;23.094;2024-02-28T10:46:06;10.82;;;4.95;;
22754;SDS011;11544;42.020;23.094;2024-02-28T10:48:55;12.60;;;4.80;;
22754;SDS011;11544;42.020;23.094;2024-02-28T10:51:24;10.35;;;4.50;;
22754;SDS011;11544;42.020;23.094;2024-02-28T10:53:59;10.23;;;5.32;;
22754;SDS011;11544;42.020;23.094;2024-02-28T10:56:39;12.32;;;4.85;;
22754;SDS011;11544;42.020;23.094;2024-02-28T10:59:08;11.57;;;4.80;;
22754;SDS011;11544;42.020;23.094;2024-02-28T11:01:39;9.95;;;5.07;;
22754;SDS011;11544;42.020;23.094;2024-02-28T11:04:11;7.70;;;4.50;;
22754;SDS011;11544;42.020;23.094;2024-02-28T11:06:54;5.55;;;2.58;;
22754;SDS011;11544;42.020;23.094;2024-02-28T11:09:23;6.13;;;2.47;;
22754;SDS011;11544;42.020;23.094;2024-02-28T11:11:55;7.93;;;2.78;;
22754;SDS011;11544;42.020;23.094;2024-02-28T11:14:22;10.82;;;3.00;;
22754;SDS011;11544;42.020;23.094;2024-02-28T11:17:02;9.02;;;3.30;;
22754;SDS011;11544;42.020;23.094;2024-02-28T11:19:30;8.77;;;2.72;;
22754;SDS011;11544;42.020;23.094;2024-02-28T11:22:00;8.57;;;3.13;;
22754;SDS011;11544;42.020;23.094;2024-02-28T11:24:31;7.18;;;2.72;;
22754;SDS011;11544;42.020;23.094;2024-02-28T11:27:00;9.25;;;3.45;;
22754;SDS011;11544;42.020;23.094;2024-02-28T11:29:30;10.20;;;3.28;;
22754;SDS011;11544;42.020;23.094;2024-02-28T11:31:57;11.93;;;2.95;;
22754;SDS011;11544;42.020;23.094;2024-02-28T11:34:24;9.02;;;3.00;;
22754;SDS011;11544;42.020;23.094;2024-02-28T11:36:52;10.55;;;4.15;;
22754;SDS011;11544;42.020;23.094;2024-02-28T11:39:23;9.50;;;2.88;;
22754;SDS011;11544;42.020;23.094;2024-02-28T11:41:52;9.20;;;2.90;;
22754;SDS011;11544;42.020;23.094;2024-02-28T11:44:20;6.85;;;2.83;;
22754;SDS011;11544;42.020;23.094;2024-02-28T11:46:47;7.22;;;2.83;;
22754;SDS011;11544;42.020;23.094;2024-02-28T11:49:15;6.43;;;3.10;;
22754;SDS011;11544;42.020;23.094;2024-02-28T11:51:43;11.15;;;2.92;;
22754;SDS011;11544;42.020;23.094;2024-02-28T11:54:11;5.80;;;2.65;;
22754;SDS011;11544;42.020;23.094;2024-02-28T11:56:38;9.65;;;3.10;;
22754;SDS011;11544;42.020;23.094;2024-02-28T11:59:06;8.07;;;2.75;;
22754;SDS011;11544;42.020;23.094;2024-02-28T12:01:35;10.77;;;2.63;;
22754;SDS011;11544;42.020;23.094;2024-02-28T12:04:06;11.40;;;3.17;;
22754;SDS011;11544;42.020;23.094;2024-02-28T12:06:34;7.80;;;3.25;;
22754;SDS011;11544;42.020;23.094;2024-02-28T12:09:03;7.50;;;3.50;;
22754;SDS011;11544;42.020;23.094;2024-02-28T12:11:32;6.65;;;3.42;;
22754;SDS011;11544;42.020;23.094;2024-02-28T12:13:59;6.40;;;3.10;;
22754;SDS011;11544;42.020;23.094;2024-02-28T12:16:30;10.98;;;3.22;;
22754;SDS011;11544;42.020;23.094;2024-02-28T12:18:57;9.43;;;2.88;;
22754;SDS011;11544;42.020;23.094;2024-02-28T12:21:23;10.18;;;3.13;;
22754;SDS011;11544;42.020;23.094;2024-02-28T12:23:51;5.90;;;3.20;;
22754;SDS011;11544;42.020;23.094;2024-02-28T12:26:17;8.25;;;3.00;;
22754;SDS011;11544;42.020;23.094;2024-02-28T12:28:45;15.82;;;3.22;;
22754;SDS011;11544;42.020;23.094;2024-02-28T12:31:12;8.88;;;3.00;;
22754;SDS011;11544;42.020;23.094;2024-02-28T12:33:40;6.13;;;2.25;;
22754;SDS011;11544;42.020;23.094;2024-02-28T12:36:08;6.53;;;2.47;;
22754;SDS011;11544;42.020;23.094;2024-02-28T12:38:35;8.45;;;2.65;;
22754;SDS011;11544;42.020;23.094;2024-02-28T12:41:03;11.95;;;2.70;;
22754;SDS011;11544;42.020;23.094;2024-02-28T12:43:30;5.10;;;2.50;;
22754;SDS011;11544;42.020;23.094;2024-02-28T12:45:59;8.98;;;3.17;;
22754;SDS011;11544;42.020;23.094;2024-02-28T12:48:26;10.90;;;2.90;;
22754;SDS011;11544;42.020;23.094;2024-02-28T12:50:54;9.07;;;2.95;;
22754;SDS011;11544;42.020;23.094;2024-02-28T12:53:21;12.60;;;3.25;;
22754;SDS011;11544;42.020;23.094;2024-02-28T12:55:48;6.80;;;3.03;;
22754;SDS011;11544;42.020;23.094;2024-02-28T12:58:15;5.03;;;2.42;;
22754;SDS011;11544;42.020;23.094;2024-02-28T13:00:42;6.13;;;2.83;;
22754;SDS011;11544;42.020;23.094;2024-02-28T13:03:09;12.50;;;3.33;;
22754;SDS011;11544;42.020;23.094;2024-02-28T13:05:36;7.43;;;2.70;;
22754;SDS011;11544;42.020;23.094;2024-02-28T13:08:03;5.00;;;2.65;;
22754;SDS011;11544;42.020;23.094;2024-02-28T13:10:31;10.85;;;3.00;;
22754;SDS011;11544;42.020;23.094;2024-02-28T13:13:00;12.43;;;3.30;;
22754;SDS011;11544;42.020;23.094;2024-02-28T13:15:28;4.88;;;2.70;;
22754;SDS011;11544;42.020;23.094;2024-02-28T13:17:55;7.25;;;2.75;;
22754;SDS011;11544;42.020;23.094;2024-02-28T13:20:24;4.53;;;2.63;;
22754;SDS011;11544;42.020;23.094;2024-02-28T13:22:53;8.98;;;3.13;;
22754;SDS011;11544;42.020;23.094;2024-02-28T13:25:21;9.30;;;3.13;;
22754;SDS011;11544;42.020;23.094;2024-02-28T13:27:47;5.57;;;2.90;;
22754;SDS011;11544;42.020;23.094;2024-02-28T13:30:14;8.57;;;3.67;;
22754;SDS011;11544;42.020;23.094;2024-02-28T13:32:42;6.65;;;3.10;;
22754;SDS011;11544;42.020;23.094;2024-02-28T13:35:11;7.90;;;3.15;;
22754;SDS011;11544;42.020;23.094;2024-02-28T13:37:38;8.93;;;3.42;;
22754;SDS011;11544;42.020;23.094;2024-02-28T13:40:07;9.55;;;2.80;;
22754;SDS011;11544;42.020;23.094;2024-02-28T13:42:37;9.18;;;2.75;;
22754;SDS011;11544;42.020;23.094;2024-02-28T13:45:07;7.22;;;3.05;;
22754;SDS011;11544;42.020;23.094;2024-02-28T13:47:35;9.10;;;3.20;;
22754;SDS011;11544;42.020;23.094;2024-02-28T13:50:02;8.75;;;3.67;;
22754;SDS011;11544;42.020;23.094;2024-02-28T13:52:29;10.75;;;2.72;;
22754;SDS011;11544;42.020;23.094;2024-02-28T13:54:57;5.78;;;3.03;;
22754;SDS011;11544;42.020;23.094;2024-02-28T13:57:23;5.22;;;2.90;;
22754;SDS011;11544;42.020;23.094;2024-02-28T13:59:53;4.13;;;2.80;;
22754;SDS011;11544;42.020;23.094;2024-02-28T14:02:21;11.38;;;3.10;;
22754;SDS011;11544;42.020;23.094;2024-02-28T14:04:53;7.55;;;3.35;;
22754;SDS011;11544;42.020;23.094;2024-02-28T14:07:21;10.85;;;3.40;;
22754;SDS011;11544;42.020;23.094;2024-02-28T14:09:48;9.38;;;3.13;;
22754;SDS011;11544;42.020;23.094;2024-02-28T14:12:15;6.70;;;2.92;;
22754;SDS011;11544;42.020;23.094;2024-02-28T14:14:42;10.45;;;4.00;;
22754;SDS011;11544;42.020;23.094;2024-02-28T14:17:09;5.55;;;3.15;;
22754;SDS011;11544;42.020;23.094;2024-02-28T14:19:36;8.57;;;3.85;;
22754;SDS011;11544;42.020;23.094;2024-02-28T14:22:03;4.13;;;2.80;;
22754;SDS011;11544;42.020;23.094;2024-02-28T14:24:31;4.20;;;2.63;;